sensor_id;sensor_type;location;lat;lon;timestamp;temperature;humidity
24638;DHT22;12773;50.162;8.548;2023-07-30T00:01:23;20.50;99.90
24638;DHT22;12773;50.162;8.548;2023-07-30T00:04:11;20.40;99.90
24638;DHT22;12773;50.162;8.548;2023-07-30T00:06:59;20.30;99.90
24638;DHT22;12773;50.162;8.548;2023-07-30T00:09:46;20.20;99.90
24638;DHT22;12773;50.162;8.548;2023-07-30T00:12:33;20.20;99.90
24638;DHT22;12773;50.162;8.548;2023-07-30T00:15:21;20.20;99.90
24638;DHT22;12773;50.162;8.548;2023-07-30T00:18:28;20.10;99.90
24638;DHT22;12773;50.162;8.548;2023-07-30T00:21:16;20.00;99.90
24638;DHT22;12773;50.162;8.548;2023-07-30T00:24:04;20.00;99.90
24638;DHT22;12773;50.162;8.548;2023-07-30T00:26:51;19.90;99.90
24638;DHT22;12773;50.162;8.548;2023-07-30T00:29:38;19.90;99.90
24638;DHT22;12773;50.162;8.548;2023-07-30T00:32:26;19.90;99.90
24638;DHT22;12773;50.162;8.548;2023-07-30T00:35:14;19.80;99.90
24638;DHT22;12773;50.162;8.548;2023-07-30T00:38:01;19.60;99.90
24638;DHT22;12773;50.162;8.548;2023-07-30T00:40:49;19.50;99.90
24638;DHT22;12773;50.162;8.548;2023-07-30T00:43:36;19.40;99.90
24638;DHT22;12773;50.162;8.548;2023-07-30T00:46:24;19.30;99.90
24638;DHT22;12773;50.162;8.548;2023-07-30T00:49:11;19.30;99.90
24638;DHT22;12773;50.162;8.548;2023-07-30T00:51:59;19.40;99.90
24638;DHT22;12773;50.162;8.548;2023-07-30T00:54:48;19.50;99.90
24638;DHT22;12773;50.162;8.548;2023-07-30T00:57:37;19.60;99.90
24638;DHT22;12773;50.162;8.548;2023-07-30T01:00:25;19.70;99.90
24638;DHT22;12773;50.162;8.548;2023-07-30T01:03:13;19.70;99.90
24638;DHT22;12773;50.162;8.548;2023-07-30T01:06:02;19.80;99.90
24638;DHT22;12773;50.162;8.548;2023-07-30T01:08:50;19.80;99.90
24638;DHT22;12773;50.162;8.548;2023-07-30T01:11:39;19.90;99.90
24638;DHT22;12773;50.162;8.548;2023-07-30T01:14:26;20.00;99.90
24638;DHT22;12773;50.162;8.548;2023-07-30T01:17:14;20.10;99.90
24638;DHT22;12773;50.162;8.548;2023-07-30T01:20:02;20.20;99.90
24638;DHT22;12773;50.162;8.548;2023-07-30T01:22:49;20.20;99.90
24638;DHT22;12773;50.162;8.548;2023-07-30T01:25:37;20.30;99.90
24638;DHT22;12773;50.162;8.548;2023-07-30T01:28:27;20.40;99.90
24638;DHT22;12773;50.162;8.548;2023-07-30T01:31:18;20.50;99.90
24638;DHT22;12773;50.162;8.548;2023-07-30T01:34:07;20.40;99.90
24638;DHT22;12773;50.162;8.548;2023-07-30T01:36:58;20.40;99.90
24638;DHT22;12773;50.162;8.548;2023-07-30T01:39:46;20.50;99.90
24638;DHT22;12773;50.162;8.548;2023-07-30T01:42:35;20.50;99.90
24638;DHT22;12773;50.162;8.548;2023-07-30T01:45:24;20.50;99.90
24638;DHT22;12773;50.162;8.548;2023-07-30T01:48:12;20.50;99.90
24638;DHT22;12773;50.162;8.548;2023-07-30T01:50:59;20.50;99.90
24638;DHT22;12773;50.162;8.548;2023-07-30T01:53:47;20.50;99.90
24638;DHT22;12773;50.162;8.548;2023-07-30T01:56:34;20.50;99.90
24638;DHT22;12773;50.162;8.548;2023-07-30T01:59:22;20.50;99.90
24638;DHT22;12773;50.162;8.548;2023-07-30T02:02:09;20.50;99.90
24638;DHT22;12773;50.162;8.548;2023-07-30T02:04:57;20.50;99.90
24638;DHT22;12773;50.162;8.548;2023-07-30T02:07:45;20.50;99.90
24638;DHT22;12773;50.162;8.548;2023-07-30T02:10:32;20.50;99.90
24638;DHT22;12773;50.162;8.548;2023-07-30T02:13:20;20.50;99.90
24638;DHT22;12773;50.162;8.548;2023-07-30T02:16:10;20.60;99.90
24638;DHT22;12773;50.162;8.548;2023-07-30T02:18:56;20.60;99.90
24638;DHT22;12773;50.162;8.548;2023-07-30T02:21:44;20.70;99.90
24638;DHT22;12773;50.162;8.548;2023-07-30T02:24:32;20.70;99.90
24638;DHT22;12773;50.162;8.548;2023-07-30T02:27:19;20.70;99.90
24638;DHT22;12773;50.162;8.548;2023-07-30T02:30:07;20.70;99.90
24638;DHT22;12773;50.162;8.548;2023-07-30T02:32:55;20.70;99.90
24638;DHT22;12773;50.162;8.548;2023-07-30T02:35:43;20.70;99.90
24638;DHT22;12773;50.162;8.548;2023-07-30T02:38:31;20.80;99.90
24638;DHT22;12773;50.162;8.548;2023-07-30T02:41:18;20.80;99.90
24638;DHT22;12773;50.162;8.548;2023-07-30T02:44:06;20.80;99.90
24638;DHT22;12773;50.162;8.548;2023-07-30T02:46:54;20.60;99.90
24638;DHT22;12773;50.162;8.548;2023-07-30T02:49:41;20.50;99.90
24638;DHT22;12773;50.162;8.548;2023-07-30T02:52:29;20.40;99.90
24638;DHT22;12773;50.162;8.548;2023-07-30T02:55:17;20.40;99.90
24638;DHT22;12773;50.162;8.548;2023-07-30T02:58:04;20.40;99.90
24638;DHT22;12773;50.162;8.548;2023-07-30T03:00:52;20.50;99.90
24638;DHT22;12773;50.162;8.548;2023-07-30T03:03:39;20.30;99.90
24638;DHT22;12773;50.162;8.548;2023-07-30T03:06:27;20.10;99.90
24638;DHT22;12773;50.162;8.548;2023-07-30T03:09:14;19.80;99.90
24638;DHT22;12773;50.162;8.548;2023-07-30T03:12:02;19.80;99.90
24638;DHT22;12773;50.162;8.548;2023-07-30T03:14:50;19.90;99.90
24638;DHT22;12773;50.162;8.548;2023-07-30T03:17:38;20.00;99.90
24638;DHT22;12773;50.162;8.548;2023-07-30T03:20:25;20.00;99.90
24638;DHT22;12773;50.162;8.548;2023-07-30T03:23:13;20.00;99.90
24638;DHT22;12773;50.162;8.548;2023-07-30T03:26:00;20.10;99.90
24638;DHT22;12773;50.162;8.548;2023-07-30T03:28:48;20.10;99.90
24638;DHT22;12773;50.162;8.548;2023-07-30T03:31:35;20.10;99.90
24638;DHT22;12773;50.162;8.548;2023-07-30T03:34:22;20.10;99.90
24638;DHT22;12773;50.162;8.548;2023-07-30T03:37:10;20.00;99.90
24638;DHT22;12773;50.162;8.548;2023-07-30T03:39:58;20.00;99.90
24638;DHT22;12773;50.162;8.548;2023-07-30T03:42:45;19.90;99.90
24638;DHT22;12773;50.162;8.548;2023-07-30T03:45:33;19.90;99.90
24638;DHT22;12773;50.162;8.548;2023-07-30T03:48:20;19.90;99.90
24638;DHT22;12773;50.162;8.548;2023-07-30T03:51:07;19.90;99.90
24638;DHT22;12773;50.162;8.548;2023-07-30T03:53:55;19.90;99.90
24638;DHT22;12773;50.162;8.548;2023-07-30T03:56:42;19.90;99.90
24638;DHT22;12773;50.162;8.548;2023-07-30T03:59:30;19.90;99.90
24638;DHT22;12773;50.162;8.548;2023-07-30T04:02:18;19.90;99.90
24638;DHT22;12773;50.162;8.548;2023-07-30T04:05:05;19.90;99.90
24638;DHT22;12773;50.162;8.548;2023-07-30T04:07:52;19.70;99.90
24638;DHT22;12773;50.162;8.548;2023-07-30T04:10:40;19.70;99.90
24638;DHT22;12773;50.162;8.548;2023-07-30T04:13:27;19.70;99.90
24638;DHT22;12773;50.162;8.548;2023-07-30T04:16:14;19.80;99.90
24638;DHT22;12773;50.162;8.548;2023-07-30T04:19:02;19.80;99.90
24638;DHT22;12773;50.162;8.548;2023-07-30T04:21:49;19.80;99.90
24638;DHT22;12773;50.162;8.548;2023-07-30T04:24:37;19.80;99.90
24638;DHT22;12773;50.162;8.548;2023-07-30T04:27:27;19.70;99.90
24638;DHT22;12773;50.162;8.548;2023-07-30T04:30:15;19.70;99.90
24638;DHT22;12773;50.162;8.548;2023-07-30T04:33:03;19.70;99.90
24638;DHT22;12773;50.162;8.548;2023-07-30T04:35:51;19.70;99.90
24638;DHT22;12773;50.162;8.548;2023-07-30T04:38:38;19.60;99.90
24638;DHT22;12773;50.162;8.548;2023-07-30T04:41:26;19.60;99.90
24638;DHT22;12773;50.162;8.548;2023-07-30T04:44:13;19.50;99.90
24638;DHT22;12773;50.162;8.548;2023-07-30T04:47:01;19.50;99.90
24638;DHT22;12773;50.162;8.548;2023-07-30T04:49:49;19.60;99.90
24638;DHT22;12773;50.162;8.548;2023-07-30T04:52:36;19.50;99.90
24638;DHT22;12773;50.162;8.548;2023-07-30T04:55:24;19.50;99.90
24638;DHT22;12773;50.162;8.548;2023-07-30T04:58:12;19.60;99.90
24638;DHT22;12773;50.162;8.548;2023-07-30T05:00:59;19.60;99.90
24638;DHT22;12773;50.162;8.548;2023-07-30T05:03:46;19.60;99.90
24638;DHT22;12773;50.162;8.548;2023-07-30T05:06:34;19.60;99.90
24638;DHT22;12773;50.162;8.548;2023-07-30T05:09:21;19.60;99.90
24638;DHT22;12773;50.162;8.548;2023-07-30T05:12:09;19.70;99.90
24638;DHT22;12773;50.162;8.548;2023-07-30T05:14:57;19.70;99.90
24638;DHT22;12773;50.162;8.548;2023-07-30T05:17:44;19.70;99.90
24638;DHT22;12773;50.162;8.548;2023-07-30T05:20:32;19.80;99.90
24638;DHT22;12773;50.162;8.548;2023-07-30T05:23:20;19.90;99.90
24638;DHT22;12773;50.162;8.548;2023-07-30T05:26:08;20.00;99.90
24638;DHT22;12773;50.162;8.548;2023-07-30T05:28:55;20.10;99.90
24638;DHT22;12773;50.162;8.548;2023-07-30T05:31:43;20.20;99.90
24638;DHT22;12773;50.162;8.548;2023-07-30T05:34:31;20.30;99.90
24638;DHT22;12773;50.162;8.548;2023-07-30T05:37:18;20.40;99.90
24638;DHT22;12773;50.162;8.548;2023-07-30T05:40:06;20.50;99.90
24638;DHT22;12773;50.162;8.548;2023-07-30T05:42:54;20.50;99.90
24638;DHT22;12773;50.162;8.548;2023-07-30T05:45:42;20.50;99.90
24638;DHT22;12773;50.162;8.548;2023-07-30T05:48:32;20.50;99.90
24638;DHT22;12773;50.162;8.548;2023-07-30T05:51:20;20.40;99.90
24638;DHT22;12773;50.162;8.548;2023-07-30T05:54:07;20.40;99.90
24638;DHT22;12773;50.162;8.548;2023-07-30T05:56:56;20.20;99.90
24638;DHT22;12773;50.162;8.548;2023-07-30T05:59:43;20.20;99.90
24638;DHT22;12773;50.162;8.548;2023-07-30T06:02:30;20.30;99.90
24638;DHT22;12773;50.162;8.548;2023-07-30T06:05:18;20.30;99.90
24638;DHT22;12773;50.162;8.548;2023-07-30T06:08:06;20.20;99.90
24638;DHT22;12773;50.162;8.548;2023-07-30T06:10:53;20.20;99.90
24638;DHT22;12773;50.162;8.548;2023-07-30T06:13:41;20.30;99.90
24638;DHT22;12773;50.162;8.548;2023-07-30T06:16:28;20.40;99.90
24638;DHT22;12773;50.162;8.548;2023-07-30T06:19:16;20.50;99.90
24638;DHT22;12773;50.162;8.548;2023-07-30T06:22:04;20.80;99.90
24638;DHT22;12773;50.162;8.548;2023-07-30T06:24:51;21.10;99.90
24638;DHT22;12773;50.162;8.548;2023-07-30T06:27:40;21.30;99.90
24638;DHT22;12773;50.162;8.548;2023-07-30T06:30:28;21.40;99.90
24638;DHT22;12773;50.162;8.548;2023-07-30T06:33:16;21.50;99.90
24638;DHT22;12773;50.162;8.548;2023-07-30T06:36:04;21.50;99.90
24638;DHT22;12773;50.162;8.548;2023-07-30T06:38:51;21.50;99.90
24638;DHT22;12773;50.162;8.548;2023-07-30T06:41:41;21.60;99.90
24638;DHT22;12773;50.162;8.548;2023-07-30T06:44:29;21.70;99.90
24638;DHT22;12773;50.162;8.548;2023-07-30T06:47:16;21.80;99.90
24638;DHT22;12773;50.162;8.548;2023-07-30T06:50:05;21.90;99.90
24638;DHT22;12773;50.162;8.548;2023-07-30T06:52:57;22.10;99.90
24638;DHT22;12773;50.162;8.548;2023-07-30T06:55:44;22.20;99.90
24638;DHT22;12773;50.162;8.548;2023-07-30T06:58:32;22.10;99.90
24638;DHT22;12773;50.162;8.548;2023-07-30T07:01:19;22.20;99.90
24638;DHT22;12773;50.162;8.548;2023-07-30T07:04:10;22.20;99.90
24638;DHT22;12773;50.162;8.548;2023-07-30T07:06:58;22.10;99.90
24638;DHT22;12773;50.162;8.548;2023-07-30T07:09:46;22.20;99.90
24638;DHT22;12773;50.162;8.548;2023-07-30T07:12:33;22.30;99.90
24638;DHT22;12773;50.162;8.548;2023-07-30T07:15:21;22.10;99.90
24638;DHT22;12773;50.162;8.548;2023-07-30T07:18:11;22.00;99.90
24638;DHT22;12773;50.162;8.548;2023-07-30T07:20:59;22.00;99.90
24638;DHT22;12773;50.162;8.548;2023-07-30T07:23:46;22.00;99.90
24638;DHT22;12773;50.162;8.548;2023-07-30T07:26:34;21.70;99.90
24638;DHT22;12773;50.162;8.548;2023-07-30T07:29:21;21.60;99.90
24638;DHT22;12773;50.162;8.548;2023-07-30T07:32:08;21.60;99.90
24638;DHT22;12773;50.162;8.548;2023-07-30T07:34:56;21.70;99.90
24638;DHT22;12773;50.162;8.548;2023-07-30T07:37:43;21.80;99.90
24638;DHT22;12773;50.162;8.548;2023-07-30T07:40:36;22.00;99.90
24638;DHT22;12773;50.162;8.548;2023-07-30T07:43:25;22.10;99.90
24638;DHT22;12773;50.162;8.548;2023-07-30T07:46:13;22.30;99.90
24638;DHT22;12773;50.162;8.548;2023-07-30T07:49:01;22.50;99.90
24638;DHT22;12773;50.162;8.548;2023-07-30T07:51:48;22.70;99.90
24638;DHT22;12773;50.162;8.548;2023-07-30T07:54:35;23.00;99.90
24638;DHT22;12773;50.162;8.548;2023-07-30T07:57:23;23.20;99.90
24638;DHT22;12773;50.162;8.548;2023-07-30T08:00:10;23.30;99.90
24638;DHT22;12773;50.162;8.548;2023-07-30T08:02:58;23.10;99.90
24638;DHT22;12773;50.162;8.548;2023-07-30T08:05:46;23.00;99.90
24638;DHT22;12773;50.162;8.548;2023-07-30T08:08:33;23.30;99.90
24638;DHT22;12773;50.162;8.548;2023-07-30T08:11:21;23.00;99.90
24638;DHT22;12773;50.162;8.548;2023-07-30T08:14:11;22.80;99.90
24638;DHT22;12773;50.162;8.548;2023-07-30T08:16:59;22.70;99.90
24638;DHT22;12773;50.162;8.548;2023-07-30T08:19:46;22.70;99.90
24638;DHT22;12773;50.162;8.548;2023-07-30T08:22:34;22.80;99.90
24638;DHT22;12773;50.162;8.548;2023-07-30T08:25:21;22.80;99.90
24638;DHT22;12773;50.162;8.548;2023-07-30T08:28:10;22.70;99.90
24638;DHT22;12773;50.162;8.548;2023-07-30T08:31:01;22.70;99.90
24638;DHT22;12773;50.162;8.548;2023-07-30T08:33:49;22.80;99.90
24638;DHT22;12773;50.162;8.548;2023-07-30T08:36:36;23.20;99.90
24638;DHT22;12773;50.162;8.548;2023-07-30T08:39:25;23.30;99.90
24638;DHT22;12773;50.162;8.548;2023-07-30T08:42:13;23.50;99.90
24638;DHT22;12773;50.162;8.548;2023-07-30T08:45:00;23.40;99.90
24638;DHT22;12773;50.162;8.548;2023-07-30T08:47:48;23.20;99.90
24638;DHT22;12773;50.162;8.548;2023-07-30T08:50:36;23.10;99.90
24638;DHT22;12773;50.162;8.548;2023-07-30T08:53:27;23.00;99.90
24638;DHT22;12773;50.162;8.548;2023-07-30T08:56:15;22.70;99.90
24638;DHT22;12773;50.162;8.548;2023-07-30T08:59:03;22.60;99.90
24638;DHT22;12773;50.162;8.548;2023-07-30T09:01:51;22.60;99.90
24638;DHT22;12773;50.162;8.548;2023-07-30T09:04:40;22.60;99.90
24638;DHT22;12773;50.162;8.548;2023-07-30T09:07:29;22.80;99.90
24638;DHT22;12773;50.162;8.548;2023-07-30T09:10:17;23.10;99.90
24638;DHT22;12773;50.162;8.548;2023-07-30T09:13:04;23.20;99.90
24638;DHT22;12773;50.162;8.548;2023-07-30T09:15:51;23.10;99.90
24638;DHT22;12773;50.162;8.548;2023-07-30T09:18:46;23.10;99.90
24638;DHT22;12773;50.162;8.548;2023-07-30T09:21:33;22.90;99.90
24638;DHT22;12773;50.162;8.548;2023-07-30T09:24:22;22.70;99.90
24638;DHT22;12773;50.162;8.548;2023-07-30T09:27:09;22.40;99.90
24638;DHT22;12773;50.162;8.548;2023-07-30T09:29:58;22.10;99.90
24638;DHT22;12773;50.162;8.548;2023-07-30T09:32:50;21.80;99.90
24638;DHT22;12773;50.162;8.548;2023-07-30T09:35:35;21.70;99.90
24638;DHT22;12773;50.162;8.548;2023-07-30T09:38:22;21.80;99.90
24638;DHT22;12773;50.162;8.548;2023-07-30T09:41:14;21.90;99.90
24638;DHT22;12773;50.162;8.548;2023-07-30T09:44:02;21.80;99.90
24638;DHT22;12773;50.162;8.548;2023-07-30T09:46:51;21.30;99.90
24638;DHT22;12773;50.162;8.548;2023-07-30T09:49:41;20.50;99.90
24638;DHT22;12773;50.162;8.548;2023-07-30T09:52:30;20.00;99.90
24638;DHT22;12773;50.162;8.548;2023-07-30T09:55:17;19.60;99.90
24638;DHT22;12773;50.162;8.548;2023-07-30T09:58:13;19.50;99.90
24638;DHT22;12773;50.162;8.548;2023-07-30T10:01:01;19.60;99.90
24638;DHT22;12773;50.162;8.548;2023-07-30T10:03:50;19.70;99.90
24638;DHT22;12773;50.162;8.548;2023-07-30T10:06:41;19.60;99.90
24638;DHT22;12773;50.162;8.548;2023-07-30T10:09:34;19.50;99.90
24638;DHT22;12773;50.162;8.548;2023-07-30T10:12:24;19.30;99.90
24638;DHT22;12773;50.162;8.548;2023-07-30T10:15:13;19.20;99.90
24638;DHT22;12773;50.162;8.548;2023-07-30T10:18:00;19.20;99.90
24638;DHT22;12773;50.162;8.548;2023-07-30T10:20:53;19.10;99.90
24638;DHT22;12773;50.162;8.548;2023-07-30T10:24:03;19.10;99.90
24638;DHT22;12773;50.162;8.548;2023-07-30T10:26:47;19.20;99.90
24638;DHT22;12773;50.162;8.548;2023-07-30T10:29:35;19.20;99.90
24638;DHT22;12773;50.162;8.548;2023-07-30T10:32:36;19.20;99.90
24638;DHT22;12773;50.162;8.548;2023-07-30T10:35:34;19.30;99.90
24638;DHT22;12773;50.162;8.548;2023-07-30T10:38:29;19.40;99.90
24638;DHT22;12773;50.162;8.548;2023-07-30T10:41:16;19.50;99.90
24638;DHT22;12773;50.162;8.548;2023-07-30T10:44:05;19.60;99.90
24638;DHT22;12773;50.162;8.548;2023-07-30T10:46:54;19.70;99.90
24638;DHT22;12773;50.162;8.548;2023-07-30T10:49:42;19.80;99.90
24638;DHT22;12773;50.162;8.548;2023-07-30T10:52:35;19.90;99.90
24638;DHT22;12773;50.162;8.548;2023-07-30T10:55:28;19.90;99.90
24638;DHT22;12773;50.162;8.548;2023-07-30T10:58:11;20.20;99.90
24638;DHT22;12773;50.162;8.548;2023-07-30T11:01:05;20.60;99.90
24638;DHT22;12773;50.162;8.548;2023-07-30T11:03:53;21.00;99.90
24638;DHT22;12773;50.162;8.548;2023-07-30T11:06:49;20.90;99.90
24638;DHT22;12773;50.162;8.548;2023-07-30T11:09:37;21.10;99.90
24638;DHT22;12773;50.162;8.548;2023-07-30T11:12:24;21.40;99.90
24638;DHT22;12773;50.162;8.548;2023-07-30T11:15:12;21.60;99.90
24638;DHT22;12773;50.162;8.548;2023-07-30T11:18:00;21.80;99.90
24638;DHT22;12773;50.162;8.548;2023-07-30T11:20:47;22.20;99.90
24638;DHT22;12773;50.162;8.548;2023-07-30T11:23:37;21.90;99.90
24638;DHT22;12773;50.162;8.548;2023-07-30T11:26:25;21.90;99.90
24638;DHT22;12773;50.162;8.548;2023-07-30T11:29:19;22.00;99.90
24638;DHT22;12773;50.162;8.548;2023-07-30T11:32:07;21.90;99.90
24638;DHT22;12773;50.162;8.548;2023-07-30T11:34:56;21.70;99.90
24638;DHT22;12773;50.162;8.548;2023-07-30T11:37:44;21.50;99.90
24638;DHT22;12773;50.162;8.548;2023-07-30T11:40:31;21.40;99.90
24638;DHT22;12773;50.162;8.548;2023-07-30T11:43:19;21.10;99.90
24638;DHT22;12773;50.162;8.548;2023-07-30T11:46:10;21.10;99.90
24638;DHT22;12773;50.162;8.548;2023-07-30T11:49:15;21.00;99.90
24638;DHT22;12773;50.162;8.548;2023-07-30T11:52:11;20.90;99.90
24638;DHT22;12773;50.162;8.548;2023-07-30T11:55:03;21.30;99.90
24638;DHT22;12773;50.162;8.548;2023-07-30T11:57:51;21.60;99.90
24638;DHT22;12773;50.162;8.548;2023-07-30T12:00:40;22.00;99.90
24638;DHT22;12773;50.162;8.548;2023-07-30T12:03:28;22.20;99.90
24638;DHT22;12773;50.162;8.548;2023-07-30T12:06:16;22.50;99.90
24638;DHT22;12773;50.162;8.548;2023-07-30T12:09:22;22.50;99.90
24638;DHT22;12773;50.162;8.548;2023-07-30T12:12:16;22.50;99.90
24638;DHT22;12773;50.162;8.548;2023-07-30T12:15:11;22.70;99.90
24638;DHT22;12773;50.162;8.548;2023-07-30T12:17:59;22.70;99.90
24638;DHT22;12773;50.162;8.548;2023-07-30T12:20:47;22.50;99.90
24638;DHT22;12773;50.162;8.548;2023-07-30T12:23:37;22.50;99.90
24638;DHT22;12773;50.162;8.548;2023-07-30T12:26:28;22.80;99.90
24638;DHT22;12773;50.162;8.548;2023-07-30T12:29:15;23.20;99.90
24638;DHT22;12773;50.162;8.548;2023-07-30T12:32:03;23.30;99.90
24638;DHT22;12773;50.162;8.548;2023-07-30T12:34:51;23.30;99.90
24638;DHT22;12773;50.162;8.548;2023-07-30T12:37:40;23.40;99.90
24638;DHT22;12773;50.162;8.548;2023-07-30T12:40:27;23.20;99.90
24638;DHT22;12773;50.162;8.548;2023-07-30T12:43:17;23.30;99.90
24638;DHT22;12773;50.162;8.548;2023-07-30T12:46:06;23.50;99.90
24638;DHT22;12773;50.162;8.548;2023-07-30T12:48:54;23.80;99.90
24638;DHT22;12773;50.162;8.548;2023-07-30T12:51:42;23.90;99.90
24638;DHT22;12773;50.162;8.548;2023-07-30T12:54:29;23.90;99.90
24638;DHT22;12773;50.162;8.548;2023-07-30T12:57:16;24.20;99.90
24638;DHT22;12773;50.162;8.548;2023-07-30T13:00:04;24.10;99.90
24638;DHT22;12773;50.162;8.548;2023-07-30T13:02:52;24.10;99.90
24638;DHT22;12773;50.162;8.548;2023-07-30T13:05:41;23.90;99.90
24638;DHT22;12773;50.162;8.548;2023-07-30T13:08:30;23.90;99.90
24638;DHT22;12773;50.162;8.548;2023-07-30T13:11:17;23.70;99.90
24638;DHT22;12773;50.162;8.548;2023-07-30T13:14:05;23.90;99.90
24638;DHT22;12773;50.162;8.548;2023-07-30T13:16:52;23.70;99.90
24638;DHT22;12773;50.162;8.548;2023-07-30T13:19:40;23.60;99.90
24638;DHT22;12773;50.162;8.548;2023-07-30T13:22:27;24.00;99.90
24638;DHT22;12773;50.162;8.548;2023-07-30T13:25:15;24.30;99.90
24638;DHT22;12773;50.162;8.548;2023-07-30T13:28:02;24.60;99.90
24638;DHT22;12773;50.162;8.548;2023-07-30T13:30:50;24.60;99.90
24638;DHT22;12773;50.162;8.548;2023-07-30T13:33:39;24.70;99.90
24638;DHT22;12773;50.162;8.548;2023-07-30T13:36:27;24.40;99.90
24638;DHT22;12773;50.162;8.548;2023-07-30T13:39:14;23.90;99.90
24638;DHT22;12773;50.162;8.548;2023-07-30T13:42:02;23.60;99.90
24638;DHT22;12773;50.162;8.548;2023-07-30T13:44:49;23.60;99.90
24638;DHT22;12773;50.162;8.548;2023-07-30T13:47:37;23.90;99.90
24638;DHT22;12773;50.162;8.548;2023-07-30T13:50:24;24.20;99.90
24638;DHT22;12773;50.162;8.548;2023-07-30T13:53:12;24.50;99.90
24638;DHT22;12773;50.162;8.548;2023-07-30T13:56:00;24.70;99.90
24638;DHT22;12773;50.162;8.548;2023-07-30T13:58:48;24.70;99.90
24638;DHT22;12773;50.162;8.548;2023-07-30T14:01:35;24.80;99.90
24638;DHT22;12773;50.162;8.548;2023-07-30T14:04:23;24.70;99.90
24638;DHT22;12773;50.162;8.548;2023-07-30T14:07:11;24.70;99.50
24638;DHT22;12773;50.162;8.548;2023-07-30T14:09:58;24.40;98.80
24638;DHT22;12773;50.162;8.548;2023-07-30T14:12:45;24.10;98.50
24638;DHT22;12773;50.162;8.548;2023-07-30T14:15:33;23.80;98.60
24638;DHT22;12773;50.162;8.548;2023-07-30T14:18:21;23.70;99.10
24638;DHT22;12773;50.162;8.548;2023-07-30T14:21:08;23.90;99.90
24638;DHT22;12773;50.162;8.548;2023-07-30T14:23:56;23.90;99.90
24638;DHT22;12773;50.162;8.548;2023-07-30T14:26:43;23.70;99.90
24638;DHT22;12773;50.162;8.548;2023-07-30T14:29:30;23.50;98.90
24638;DHT22;12773;50.162;8.548;2023-07-30T14:32:19;23.50;99.90
24638;DHT22;12773;50.162;8.548;2023-07-30T14:35:07;23.60;99.20
24638;DHT22;12773;50.162;8.548;2023-07-30T14:37:56;23.70;99.10
24638;DHT22;12773;50.162;8.548;2023-07-30T14:40:44;23.60;99.00
24638;DHT22;12773;50.162;8.548;2023-07-30T14:43:31;23.80;99.90
24638;DHT22;12773;50.162;8.548;2023-07-30T14:46:19;23.80;99.30
24638;DHT22;12773;50.162;8.548;2023-07-30T14:49:06;23.80;99.80
24638;DHT22;12773;50.162;8.548;2023-07-30T14:51:54;23.40;98.90
24638;DHT22;12773;50.162;8.548;2023-07-30T14:54:43;23.20;99.30
24638;DHT22;12773;50.162;8.548;2023-07-30T14:57:30;23.30;99.90
24638;DHT22;12773;50.162;8.548;2023-07-30T15:00:19;23.40;99.60
24638;DHT22;12773;50.162;8.548;2023-07-30T15:03:06;23.60;99.90
24638;DHT22;12773;50.162;8.548;2023-07-30T15:05:54;23.80;99.90
24638;DHT22;12773;50.162;8.548;2023-07-30T15:08:41;23.80;99.90
24638;DHT22;12773;50.162;8.548;2023-07-30T15:11:28;24.10;99.90
24638;DHT22;12773;50.162;8.548;2023-07-30T15:14:16;24.10;98.50
24638;DHT22;12773;50.162;8.548;2023-07-30T15:17:03;24.30;98.30
24638;DHT22;12773;50.162;8.548;2023-07-30T15:19:51;24.50;97.80
24638;DHT22;12773;50.162;8.548;2023-07-30T15:22:40;24.40;96.70
24638;DHT22;12773;50.162;8.548;2023-07-30T15:25:27;24.70;97.40
24638;DHT22;12773;50.162;8.548;2023-07-30T15:28:15;24.60;96.70
24638;DHT22;12773;50.162;8.548;2023-07-30T15:31:03;24.90;97.00
24638;DHT22;12773;50.162;8.548;2023-07-30T15:33:50;25.20;96.40
24638;DHT22;12773;50.162;8.548;2023-07-30T15:36:39;25.00;96.00
24638;DHT22;12773;50.162;8.548;2023-07-30T15:39:27;24.70;95.80
24638;DHT22;12773;50.162;8.548;2023-07-30T15:42:15;24.50;96.10
24638;DHT22;12773;50.162;8.548;2023-07-30T15:45:02;24.20;95.00
24638;DHT22;12773;50.162;8.548;2023-07-30T15:47:50;24.20;96.70
24638;DHT22;12773;50.162;8.548;2023-07-30T15:50:39;24.70;95.20
24638;DHT22;12773;50.162;8.548;2023-07-30T15:53:26;25.00;94.50
24638;DHT22;12773;50.162;8.548;2023-07-30T15:56:14;25.10;95.30
24638;DHT22;12773;50.162;8.548;2023-07-30T15:59:02;25.10;93.50
24638;DHT22;12773;50.162;8.548;2023-07-30T16:01:49;25.00;93.50
24638;DHT22;12773;50.162;8.548;2023-07-30T16:04:37;25.00;92.60
24638;DHT22;12773;50.162;8.548;2023-07-30T16:07:24;24.80;92.00
24638;DHT22;12773;50.162;8.548;2023-07-30T16:10:12;24.70;92.00
24638;DHT22;12773;50.162;8.548;2023-07-30T16:12:59;24.70;92.60
24638;DHT22;12773;50.162;8.548;2023-07-30T16:15:47;24.80;92.10
24638;DHT22;12773;50.162;8.548;2023-07-30T16:18:34;25.00;92.70
24638;DHT22;12773;50.162;8.548;2023-07-30T16:21:22;25.00;91.50
24638;DHT22;12773;50.162;8.548;2023-07-30T16:24:10;25.30;91.80
24638;DHT22;12773;50.162;8.548;2023-07-30T16:26:57;25.30;91.10
24638;DHT22;12773;50.162;8.548;2023-07-30T16:29:46;25.20;91.00
24638;DHT22;12773;50.162;8.548;2023-07-30T16:32:33;25.10;90.70
24638;DHT22;12773;50.162;8.548;2023-07-30T16:35:21;24.80;91.40
24638;DHT22;12773;50.162;8.548;2023-07-30T16:38:08;24.70;92.00
24638;DHT22;12773;50.162;8.548;2023-07-30T16:40:56;24.90;92.70
24638;DHT22;12773;50.162;8.548;2023-07-30T16:43:44;24.90;92.20
24638;DHT22;12773;50.162;8.548;2023-07-30T16:46:31;24.70;91.80
24638;DHT22;12773;50.162;8.548;2023-07-30T16:49:19;24.80;91.60
24638;DHT22;12773;50.162;8.548;2023-07-30T16:52:06;24.60;91.30
24638;DHT22;12773;50.162;8.548;2023-07-30T16:54:54;24.20;91.80
24638;DHT22;12773;50.162;8.548;2023-07-30T16:57:42;24.10;92.20
24638;DHT22;12773;50.162;8.548;2023-07-30T17:00:29;24.10;93.20
24638;DHT22;12773;50.162;8.548;2023-07-30T17:03:16;24.20;92.30
24638;DHT22;12773;50.162;8.548;2023-07-30T17:06:04;24.00;92.40
24638;DHT22;12773;50.162;8.548;2023-07-30T17:08:52;24.00;92.90
24638;DHT22;12773;50.162;8.548;2023-07-30T17:11:40;23.90;92.70
24638;DHT22;12773;50.162;8.548;2023-07-30T17:14:29;23.90;92.60
24638;DHT22;12773;50.162;8.548;2023-07-30T17:17:17;23.80;93.60
24638;DHT22;12773;50.162;8.548;2023-07-30T17:20:05;23.80;93.00
24638;DHT22;12773;50.162;8.548;2023-07-30T17:22:53;23.90;93.30
24638;DHT22;12773;50.162;8.548;2023-07-30T17:25:40;23.70;93.10
24638;DHT22;12773;50.162;8.548;2023-07-30T17:28:28;23.70;93.20
24638;DHT22;12773;50.162;8.548;2023-07-30T17:31:16;23.70;93.80
24638;DHT22;12773;50.162;8.548;2023-07-30T17:34:03;23.60;94.70
24638;DHT22;12773;50.162;8.548;2023-07-30T17:36:51;23.40;93.90
24638;DHT22;12773;50.162;8.548;2023-07-30T17:39:39;23.20;93.70
24638;DHT22;12773;50.162;8.548;2023-07-30T17:42:26;23.10;94.60